Portada
METAR-TAF:

METAR-TAF

Aeroports :

Rahim Yar Khan, Pakistan

latitud: 28-23-02N, longitud: 70-16-47E, altitud: 83 m

METAR: manca

Hora: 05:07 (00:07 UTC)

Pronòstic

L'informe es va fer fa 2 hores i 7 minuts, a les 22:00 UTC
Pronòstic vàlid del 22 a les 00 UTC al 22 a les 18 UTC
Vent 10 kt del Nord-Est
Visibilitat: 4000 m
Escasses núvols a una alçada de 12000 ft
fum
Probabilitat 30% :
Temporalment
l' 22 a les 01 UTC al 22 a les 05 UTC
Vent kt del Nord
Visibilitat: 2000 m
fum

TAF: OPRK 212200Z 2200/2218 05010KT 4000 FU FEW120 TN22/2201Z TX41/2210Z PROB30 TEMPO 2201/2205 00000KT 2000 FU NSC

Observacions i pronòstics meteorològics de més de 4000 aeroports (METAR i TAF).

Les estacions disponibles són els punts grocs i vermells al mapa.

Posi el ratolí al punt desitjat per veure el nom de l'estació.

Feu clic per veure les observacions i els pronòstics meteorològics.

Per canviar el mapa: feu clic els botons verds amb una creu de color negre per apropar; al botó verd amb un guió per allunyar la imatge; o en les fletxes verdes per a mapes adjacents.


METAR-TAF: